createdAt,value
2023-11-13T00:04:05.858Z,1010.01
2023-11-13T00:14:05.895Z,1010.22
2023-11-13T00:24:06.107Z,1010.23
2023-11-13T00:34:06.332Z,1010.27
2023-11-13T00:44:06.582Z,1010.32
2023-11-13T00:54:06.879Z,1010.27
2023-11-13T01:04:06.821Z,1010.66
2023-11-13T01:14:06.816Z,1010.28
2023-11-13T01:24:07.114Z,1010.49
2023-11-13T01:34:07.483Z,1010.07
2023-11-13T01:44:10.662Z,1010.22
2023-11-13T01:54:07.644Z,1010.60
2023-11-13T02:04:07.970Z,1010.35
2023-11-13T02:14:07.958Z,1010.77
2023-11-13T02:24:08.230Z,1011.02
2023-11-13T02:34:08.249Z,1010.42
2023-11-13T02:44:08.506Z,1010.22
2023-11-13T02:54:08.668Z,1010.28
2023-11-13T03:04:09.016Z,1010.06
2023-11-13T03:14:09.065Z,1010.41
2023-11-13T03:24:09.132Z,1010.16
2023-11-13T03:34:09.158Z,1009.89
2023-11-13T03:44:11.451Z,1009.60
2023-11-13T03:54:09.429Z,1009.77
2023-11-13T04:04:09.782Z,1010.03
2023-11-13T04:14:09.754Z,1010.47
2023-11-13T04:24:09.940Z,1010.67
2023-11-13T04:34:10.163Z,1010.85
2023-11-13T04:44:10.421Z,1011.10
2023-11-13T04:54:10.416Z,1010.66
2023-11-13T05:04:11.622Z,1010.67
2023-11-13T05:14:10.811Z,1010.71
2023-11-13T05:24:11.050Z,1010.70
2023-11-13T05:34:11.286Z,1010.87
2023-11-13T05:44:11.583Z,1010.82
2023-11-13T05:54:11.539Z,1010.72
2023-11-13T06:04:11.956Z,1010.72
2023-11-13T06:14:12.230Z,1010.71
2023-11-13T06:24:12.328Z,1010.64
2023-11-13T06:34:12.295Z,1010.79
2023-11-13T06:44:12.533Z,1010.87
2023-11-13T06:54:12.713Z,1011.12
2023-11-13T07:04:13.193Z,1011.18
2023-11-13T07:14:13.356Z,1011.08
2023-11-13T07:24:13.575Z,1011.55
2023-11-13T07:34:13.411Z,1011.42
2023-11-13T07:44:13.647Z,1011.63
2023-11-13T07:54:13.828Z,1011.60
2023-11-13T08:04:14.172Z,1011.58
2023-11-13T08:14:14.139Z,1011.74
2023-11-13T08:24:14.407Z,1011.59
2023-11-13T08:34:14.412Z,1011.77
2023-11-13T08:44:15.577Z,1011.57
2023-11-13T08:54:14.769Z,1011.81
2023-11-13T09:04:15.152Z,1011.65
2023-11-13T09:14:15.132Z,1011.93
2023-11-13T09:24:15.400Z,1011.95
2023-11-13T09:34:15.576Z,1012.00
2023-11-13T09:44:15.770Z,1011.56
2023-11-13T09:54:15.969Z,1011.33
2023-11-13T10:04:20.633Z,1011.18
2023-11-13T10:14:16.364Z,1011.20
2023-11-13T10:24:23.221Z,1011.21
2023-11-13T10:34:17.650Z,1010.72
2023-11-13T10:44:16.885Z,1010.59
2023-11-13T10:54:17.047Z,1010.63
2023-11-13T11:04:17.397Z,1010.56
2023-11-13T11:14:17.377Z,1010.30
2023-11-13T11:24:17.616Z,1009.82
2023-11-13T11:34:17.814Z,1009.55
2023-11-13T11:44:18.096Z,1009.50
2023-11-13T11:54:18.070Z,1008.99
2023-11-13T12:04:18.356Z,1009.28
2023-11-13T12:14:18.321Z,1009.02
2023-11-13T12:24:21.004Z,1009.09
2023-11-13T12:34:18.605Z,1008.80
2023-11-13T12:44:19.000Z,1008.89
2023-11-13T12:54:19.152Z,1009.22
2023-11-13T13:04:19.247Z,1009.09
2023-11-13T13:14:19.473Z,1009.04
2023-11-13T13:24:19.544Z,1009.23
2023-11-13T13:34:19.552Z,1009.28
2023-11-13T13:44:19.832Z,1009.16
2023-11-13T13:54:19.815Z,1009.34
2023-11-13T14:04:20.301Z,1009.00
2023-11-13T14:14:20.063Z,1008.51
2023-11-13T14:24:22.085Z,1008.66
2023-11-13T14:34:20.476Z,1008.49
2023-11-13T14:44:20.516Z,1008.25
2023-11-13T14:54:20.689Z,1007.94
2023-11-13T15:04:21.000Z,1007.92
2023-11-13T15:14:20.964Z,1007.79
2023-11-13T15:24:21.301Z,1007.77
2023-11-13T15:34:26.929Z,1007.96
2023-11-13T15:44:22.484Z,1007.57
2023-11-13T15:54:21.708Z,1007.43
2023-11-13T16:04:21.990Z,1007.56
2023-11-13T16:14:24.016Z,1007.41
2023-11-13T16:24:22.199Z,1007.84
2023-11-13T16:34:22.511Z,1007.98
2023-11-13T16:44:22.480Z,1008.46
2023-11-13T16:54:24.539Z,1008.70
2023-11-13T17:04:22.776Z,1008.42
2023-11-13T17:14:24.027Z,1008.52
2023-11-13T17:24:23.091Z,1008.65
2023-11-13T17:34:23.337Z,1008.73
2023-11-13T17:44:23.934Z,1008.78
2023-11-13T17:54:24.153Z,1008.73
2023-11-13T18:04:24.440Z,1009.07
2023-11-13T18:14:24.300Z,1009.13
2023-11-13T18:24:24.404Z,1008.65
2023-11-13T18:34:24.711Z,1008.54
2023-11-13T18:44:24.971Z,1009.14
2023-11-13T18:54:25.299Z,1008.87
2023-11-13T19:04:25.430Z,1008.79
2023-11-13T19:14:25.779Z,1008.64
2023-11-13T19:24:26.640Z,1008.38
2023-11-13T19:34:25.984Z,1008.23
2023-11-13T19:44:26.454Z,1008.55
2023-11-13T19:54:26.029Z,1008.18
2023-11-13T20:04:26.128Z,1008.23
2023-11-13T20:14:26.160Z,1007.67
2023-11-13T20:24:26.389Z,1007.29
2023-11-13T20:34:26.657Z,1007.41
2023-11-13T20:44:26.872Z,1007.44
2023-11-13T20:54:27.148Z,1007.45
2023-11-13T21:04:26.704Z,1007.88
2023-11-13T21:14:26.932Z,1007.41
2023-11-13T21:24:27.111Z,1007.39
2023-11-13T21:34:27.558Z,1007.25
2023-11-13T21:44:27.493Z,1007.22
2023-11-13T21:54:27.766Z,1007.05
2023-11-13T22:04:28.051Z,1007.04
2023-11-13T22:14:28.238Z,1007.22
2023-11-13T22:24:28.222Z,1007.44
2023-11-13T22:34:28.641Z,1007.17
2023-11-13T22:44:28.682Z,1007.12
2023-11-13T22:54:28.981Z,1007.49
2023-11-13T23:04:29.229Z,1007.34
2023-11-13T23:14:29.457Z,1007.06
2023-11-13T23:24:29.448Z,1007.03
2023-11-13T23:34:29.772Z,1007.16
2023-11-13T23:44:29.710Z,1007.03
2023-11-13T23:54:30.905Z,1007.20
